Time;durP1;ratioP1;P1;durP2;ratioP2;P2;SDS_P1;SDS_P2;PMS_P1;PMS_P2;Temp;Humidity;BMP_temperature;BMP_pressure;BME280_temperature;BME280_humidity;BME280_pressure;Samples;Min_cycle;Max_cycle;Signal;HPM_P1;HPM_P2
2021/11/19 00:00:24;;;;;;;;;;;9.70;99.90;;;;;;5047442;28;19987;-84
2021/11/19 00:02:50;;;;;;;;;;;9.60;99.90;;;;;;5052299;28;19948;-83
2021/11/19 00:05:17;;;;;;;;;;;9.70;99.90;;;;;;5059356;28;19947;-83
2021/11/19 00:07:44;;;;;;;;;;;9.70;99.90;;;;;;5058284;28;19925;-82
2021/11/19 00:10:11;;;;;;;;;;;9.70;99.90;;;;;;5052327;28;19941;-83
2021/11/19 00:12:38;;;;;;;;;;;9.70;99.90;;;;;;5047857;28;19929;-83
2021/11/19 00:15:06;;;;;;;;;;;9.70;99.90;;;;;;5048220;28;19925;-83
2021/11/19 00:17:34;;;;;;;;;;;9.70;99.90;;;;;;5047429;28;19929;-83
2021/11/19 00:20:00;;;;;;;;;;;9.70;99.90;;;;;;5047951;28;19925;-83
2021/11/19 00:22:27;;;;;;;;;;;9.70;99.90;;;;;;5048516;28;19925;-83
2021/11/19 00:24:53;;;;;;;;;;;9.70;99.90;;;;;;5047852;28;19925;-83
2021/11/19 00:27:21;;;;;;;;;;;9.70;99.90;;;;;;5048011;28;19925;-83
2021/11/19 00:29:48;;;;;;;;;;;9.70;99.90;;;;;;5048271;28;19925;-83
2021/11/19 00:32:15;;;;;;;;;;;9.70;99.90;;;;;;5048290;28;19925;-83
2021/11/19 00:34:43;;;;;;;;;;;9.70;99.90;;;;;;5051986;28;19948;-83
2021/11/19 00:37:10;;;;;;;;;;;9.70;99.90;;;;;;5054377;28;19993;-82
2021/11/19 00:39:37;;;;;;;;;;;9.80;99.90;;;;;;5053835;28;19925;-83
2021/11/19 00:42:05;;;;;;;;;;;9.80;99.90;;;;;;5051817;28;19929;-83
2021/11/19 00:44:32;;;;;;;;;;;9.80;99.90;;;;;;5048719;28;20414;-84
2021/11/19 00:46:59;;;;;;;;;;;9.90;99.90;;;;;;5050115;28;19957;-82
2021/11/19 00:49:27;;;;;;;;;;;9.80;99.90;;;;;;5049992;28;19925;-83
2021/11/19 00:51:56;;;;;;;;;;;9.80;99.90;;;;;;5059709;28;19992;-83
2021/11/19 00:54:23;;;;;;;;;;;9.80;99.90;;;;;;5059345;28;19931;-83
2021/11/19 00:56:50;;;;;;;;;;;9.80;99.90;;;;;;5047525;28;19925;-83
2021/11/19 00:59:18;;;;;;;;;;;9.80;99.90;;;;;;5050651;28;19961;-83
2021/11/19 01:01:47;;;;;;;;;;;9.80;99.90;;;;;;5054958;28;20481;-83
2021/11/19 01:04:14;;;;;;;;;;;9.80;99.90;;;;;;5058271;28;19929;-83
2021/11/19 01:06:41;;;;;;;;;;;9.80;99.90;;;;;;5059139;28;19947;-83
2021/11/19 01:09:09;;;;;;;;;;;9.90;99.90;;;;;;5052324;28;19925;-83
2021/11/19 01:11:36;;;;;;;;;;;9.90;99.90;;;;;;5049207;28;20253;-83
2021/11/19 01:14:04;;;;;;;;;;;9.90;99.90;;;;;;5047719;28;19948;-83
2021/11/19 01:16:32;;;;;;;;;;;10.00;99.90;;;;;;5047724;28;19983;-82
2021/11/19 01:19:00;;;;;;;;;;;9.90;99.90;;;;;;5047102;28;19925;-83
2021/11/19 01:21:28;;;;;;;;;;;9.90;99.90;;;;;;5046871;28;19925;-83
2021/11/19 01:23:55;;;;;;;;;;;9.90;99.90;;;;;;5046508;28;19925;-83
2021/11/19 01:26:27;;;;;;;;;;;10.00;99.90;;;;;;5045982;28;19925;-83
2021/11/19 01:28:55;;;;;;;;;;;10.00;99.90;;;;;;5045680;28;19925;-83
2021/11/19 01:31:23;;;;;;;;;;;10.00;99.90;;;;;;5046972;28;19925;-83
2021/11/19 01:33:49;;;;;;;;;;;10.20;99.90;;;;;;5058760;28;19912;-82
2021/11/19 01:36:16;;;;;;;;;;;10.10;99.90;;;;;;5058889;28;19948;-83
2021/11/19 01:38:44;;;;;;;;;;;10.00;99.90;;;;;;5049251;28;19925;-83
2021/11/19 01:41:12;;;;;;;;;;;10.00;99.90;;;;;;5045995;28;19974;-83
2021/11/19 01:43:41;;;;;;;;;;;10.00;99.90;;;;;;5044822;28;19925;-83
2021/11/19 01:46:09;;;;;;;;;;;10.00;99.90;;;;;;5043491;28;19925;-83
2021/11/19 01:48:40;;;;;;;;;;;10.00;99.90;;;;;;5045169;28;19925;-83
2021/11/19 01:51:08;;;;;;;;;;;10.10;99.90;;;;;;5045117;28;19926;-83
2021/11/19 01:53:37;;;;;;;;;;;10.10;99.90;;;;;;5045184;28;20434;-83
2021/11/19 01:56:05;;;;;;;;;;;10.30;99.90;;;;;;5045183;28;19975;-82
2021/11/19 01:58:34;;;;;;;;;;;10.10;99.90;;;;;;5044891;28;19925;-82
2021/11/19 02:01:04;;;;;;;;;;;10.10;99.90;;;;;;5044732;28;19948;-82
2021/11/19 02:03:32;;;;;;;;;;;10.20;99.90;;;;;;5050947;28;19936;-81
2021/11/19 02:06:00;;;;;;;;;;;10.00;99.90;;;;;;5054042;28;19924;-84
2021/11/19 02:08:29;;;;;;;;;;;10.20;99.90;;;;;;5049189;28;19943;-81
2021/11/19 02:11:02;;;;;;;;;;;9.40;99.90;;;;;;5054634;28;19968;-81
2021/11/19 02:13:31;;;;;;;;;;;10.20;99.90;;;;;;5053052;28;20059;-83
2021/11/19 02:15:59;;;;;;;;;;;10.20;99.90;;;;;;5054798;28;19913;-82
2021/11/19 02:18:29;;;;;;;;;;;10.20;99.90;;;;;;5053971;28;19925;-82
2021/11/19 02:20:58;;;;;;;;;;;10.20;99.90;;;;;;5055668;28;19936;-82
2021/11/19 02:23:26;;;;;;;;;;;10.20;99.90;;;;;;5058015;28;19921;-82
2021/11/19 02:25:55;;;;;;;;;;;10.20;99.90;;;;;;5058288;28;19925;-82
2021/11/19 02:28:23;;;;;;;;;;;10.20;99.90;;;;;;5055713;28;19913;-82
2021/11/19 02:30:54;;;;;;;;;;;10.40;99.90;;;;;;5053274;28;19936;-83
2021/11/19 02:33:20;;;;;;;;;;;10.30;99.90;;;;;;5045553;28;19980;-83
2021/11/19 02:35:50;;;;;;;;;;;10.30;99.90;;;;;;5046492;28;19952;-82
2021/11/19 02:38:18;;;;;;;;;;;10.30;99.90;;;;;;5055189;28;20323;-82
2021/11/19 02:40:45;;;;;;;;;;;10.30;99.90;;;;;;5057659;28;19947;-83
2021/11/19 02:43:15;;;;;;;;;;;10.30;99.90;;;;;;5054586;28;19925;-84
2021/11/19 02:45:43;;;;;;;;;;;10.30;99.90;;;;;;5051970;28;19925;-85
2021/11/19 02:48:12;;;;;;;;;;;10.40;99.90;;;;;;5051337;28;19925;-85
2021/11/19 02:50:38;;;;;;;;;;;10.40;99.90;;;;;;5051104;28;19925;-85
2021/11/19 02:53:07;;;;;;;;;;;10.60;99.90;;;;;;5055310;28;19954;-85
2021/11/19 02:55:35;;;;;;;;;;;10.40;99.90;;;;;;5057830;28;19913;-84
2021/11/19 02:58:02;;;;;;;;;;;10.40;99.90;;;;;;5052096;28;19972;-83
2021/11/19 03:00:30;;;;;;;;;;;10.40;99.90;;;;;;5050565;28;19925;-83
2021/11/19 03:02:57;;;;;;;;;;;10.40;99.90;;;;;;5050204;28;19937;-84
2021/11/19 03:05:26;;;;;;;;;;;10.50;99.90;;;;;;5052832;28;19929;-84
2021/11/19 03:07:53;;;;;;;;;;;10.50;99.90;;;;;;5057713;28;19952;-83
2021/11/19 03:10:22;;;;;;;;;;;10.50;99.90;;;;;;5055751;28;19925;-84
2021/11/19 03:12:50;;;;;;;;;;;10.50;99.90;;;;;;5053607;28;20371;-85
2021/11/19 03:15:19;;;;;;;;;;;10.50;99.90;;;;;;5054732;28;20000;-83
2021/11/19 03:17:45;;;;;;;;;;;10.50;99.90;;;;;;5057973;28;19913;-84
2021/11/19 03:20:13;;;;;;;;;;;10.50;99.90;;;;;;5058284;28;19909;-83
2021/11/19 03:22:39;;;;;;;;;;;10.60;99.90;;;;;;5053657;28;19925;-85
2021/11/19 03:25:07;;;;;;;;;;;10.50;99.90;;;;;;5050349;28;19925;-85
2021/11/19 03:27:35;;;;;;;;;;;10.60;99.90;;;;;;5050755;28;19972;-85
2021/11/19 03:30:01;;;;;;;;;;;10.60;99.90;;;;;;5050600;28;19948;-86
2021/11/19 03:32:29;;;;;;;;;;;10.60;99.90;;;;;;5050040;28;20268;-85
2021/11/19 03:34:56;;;;;;;;;;;10.60;99.90;;;;;;5050312;28;19925;-84
2021/11/19 03:37:23;;;;;;;;;;;10.70;99.90;;;;;;5050138;28;19951;-84
2021/11/19 03:39:50;;;;;;;;;;;10.70;99.90;;;;;;5049476;28;19987;-85
2021/11/19 03:42:17;;;;;;;;;;;10.70;99.90;;;;;;5049948;28;19926;-85
2021/11/19 03:44:47;;;;;;;;;;;10.70;99.90;;;;;;5053831;28;19925;-85
2021/11/19 03:47:15;;;;;;;;;;;10.70;99.90;;;;;;5051132;28;19925;-84
2021/11/19 03:49:43;;;;;;;;;;;10.70;99.90;;;;;;5046656;28;19925;-85
2021/11/19 03:52:12;;;;;;;;;;;10.70;99.90;;;;;;5047941;28;19925;-85
2021/11/19 03:54:40;;;;;;;;;;;10.70;99.90;;;;;;5047138;28;19967;-85
2021/11/19 03:57:07;;;;;;;;;;;10.70;99.90;;;;;;5047676;28;19975;-84
2021/11/19 03:59:34;;;;;;;;;;;10.70;99.90;;;;;;5046807;28;19925;-84
2021/11/19 04:02:03;;;;;;;;;;;10.70;99.90;;;;;;5042398;28;19925;-85
2021/11/19 04:04:31;;;;;;;;;;;10.60;99.90;;;;;;5041545;28;19971;-84
2021/11/19 04:06:59;;;;;;;;;;;10.70;99.90;;;;;;5040221;28;20380;-84
2021/11/19 04:09:26;;;;;;;;;;;10.70;99.90;;;;;;5041925;28;19925;-84
2021/11/19 04:11:53;;;;;;;;;;;10.70;99.90;;;;;;5044106;28;19925;-84
2021/11/19 04:14:19;;;;;;;;;;;10.60;99.90;;;;;;5045878;28;19929;-84
2021/11/19 04:16:47;;;;;;;;;;;10.60;99.90;;;;;;5047929;28;19949;-84
2021/11/19 04:19:16;;;;;;;;;;;10.60;99.90;;;;;;5064745;23;19921;-81
2021/11/19 04:21:43;;;;;;;;;;;11.40;99.90;;;;;;5058915;28;19925;-81
2021/11/19 04:24:11;;;;;;;;;;;10.50;99.90;;;;;;5058749;28;19980;-81
2021/11/19 04:26:38;;;;;;;;;;;10.50;99.90;;;;;;5057836;28;19925;-83
2021/11/19 04:29:05;;;;;;;;;;;10.50;99.90;;;;;;5056001;28;19925;-82
2021/11/19 04:31:32;;;;;;;;;;;10.50;99.90;;;;;;5057816;28;19931;-81
2021/11/19 04:34:00;;;;;;;;;;;10.50;99.90;;;;;;5056433;28;19924;-79
2021/11/19 04:36:28;;;;;;;;;;;10.40;99.90;;;;;;5055315;28;19925;-84
2021/11/19 04:38:54;;;;;;;;;;;10.40;99.90;;;;;;5047550;28;19925;-85
2021/11/19 04:41:21;;;;;;;;;;;10.40;99.90;;;;;;5048877;28;19947;-83
2021/11/19 04:43:48;;;;;;;;;;;10.40;99.90;;;;;;5046326;28;19980;-82
2021/11/19 04:46:15;;;;;;;;;;;10.40;99.90;;;;;;5047571;28;19971;-83
2021/11/19 04:48:43;;;;;;;;;;;10.40;99.90;;;;;;5047789;28;19925;-81
2021/11/19 04:51:11;;;;;;;;;;;10.40;99.90;;;;;;5055379;28;19925;-84
2021/11/19 04:53:39;;;;;;;;;;;10.40;99.90;;;;;;5046265;28;20315;-82
2021/11/19 04:56:06;;;;;;;;;;;10.50;99.90;;;;;;5044153;28;19925;-84
2021/11/19 04:58:33;;;;;;;;;;;10.50;99.90;;;;;;5042633;28;19929;-82
2021/11/19 05:01:01;;;;;;;;;;;10.30;99.90;;;;;;5044661;28;19925;-83
2021/11/19 05:03:28;;;;;;;;;;;10.50;99.90;;;;;;5057939;28;19925;-82
2021/11/19 05:05:54;;;;;;;;;;;10.60;99.90;;;;;;5055315;28;19925;-83
2021/11/19 05:08:21;;;;;;;;;;;10.60;99.90;;;;;;5055883;28;19925;-83
2021/11/19 05:10:51;;;;;;;;;;;10.60;99.90;;;;;;5055634;28;19909;-83
2021/11/19 05:13:18;;;;;;;;;;;10.60;99.90;;;;;;5055896;28;19975;-82
2021/11/19 05:15:46;;;;;;;;;;;10.70;99.90;;;;;;5055712;28;19936;-81
2021/11/19 05:18:13;;;;;;;;;;;10.70;99.90;;;;;;5055927;28;19948;-83
2021/11/19 05:20:40;;;;;;;;;;;10.70;99.90;;;;;;5052738;28;19926;-83
2021/11/19 05:23:07;;;;;;;;;;;10.60;99.90;;;;;;5050419;28;19925;-83
2021/11/19 05:25:39;;;;;;;;;;;10.60;99.90;;;;;;5051370;28;19959;-81
2021/11/19 05:28:07;;;;;;;;;;;10.60;99.90;;;;;;5054778;28;19936;-82
2021/11/19 05:30:34;;;;;;;;;;;10.70;99.90;;;;;;5055670;28;19975;-82
2021/11/19 05:33:01;;;;;;;;;;;10.70;99.90;;;;;;5056247;28;19924;-83
2021/11/19 05:35:27;;;;;;;;;;;10.70;99.90;;;;;;5055942;28;19925;-81
2021/11/19 05:37:54;;;;;;;;;;;10.70;99.90;;;;;;5054332;28;19925;-83
2021/11/19 05:40:22;;;;;;;;;;;10.70;99.90;;;;;;5046664;28;19929;-82
2021/11/19 05:42:49;;;;;;;;;;;10.70;99.90;;;;;;5055088;28;19936;-83
2021/11/19 05:45:18;;;;;;;;;;;10.70;99.90;;;;;;5057640;28;19925;-83
2021/11/19 05:47:44;;;;;;;;;;;10.60;99.90;;;;;;5059524;28;19976;-81
2021/11/19 05:50:12;;;;;;;;;;;10.70;99.90;;;;;;5054096;28;19926;-83
2021/11/19 05:52:39;;;;;;;;;;;10.70;99.90;;;;;;5059061;28;19909;-81
2021/11/19 05:55:08;;;;;;;;;;;10.70;99.90;;;;;;5059746;28;19913;-79
2021/11/19 05:57:34;;;;;;;;;;;10.80;99.90;;;;;;5056315;28;19929;-83
2021/11/19 06:00:03;;;;;;;;;;;10.80;99.90;;;;;;5055569;28;19951;-83
2021/11/19 06:02:31;;;;;;;;;;;10.90;99.90;;;;;;5053628;28;19925;-81
2021/11/19 06:04:58;;;;;;;;;;;10.50;99.90;;;;;;5053174;28;19935;-82
2021/11/19 06:07:25;;;;;;;;;;;10.80;99.90;;;;;;5054774;28;19944;-82
2021/11/19 06:09:52;;;;;;;;;;;10.90;99.90;;;;;;5054736;28;19925;-83
2021/11/19 06:12:20;;;;;;;;;;;11.20;99.90;;;;;;5053623;28;19925;-82
2021/11/19 06:14:49;;;;;;;;;;;10.90;99.90;;;;;;5054223;28;19932;-83
2021/11/19 06:17:18;;;;;;;;;;;10.90;99.90;;;;;;5053906;28;19925;-83
2021/11/19 06:19:47;;;;;;;;;;;10.90;99.90;;;;;;5051388;28;19925;-84
2021/11/19 06:22:19;;;;;;;;;;;11.00;99.90;;;;;;5054123;28;19952;-82
2021/11/19 06:24:47;;;;;;;;;;;11.00;99.90;;;;;;5054335;28;19925;-84
2021/11/19 06:27:19;;;;;;;;;;;11.00;99.90;;;;;;5053299;28;19921;-82
2021/11/19 06:29:46;;;;;;;;;;;11.00;99.90;;;;;;5053499;28;20323;-81
2021/11/19 06:32:13;;;;;;;;;;;11.00;99.90;;;;;;5049959;28;19932;-83
2021/11/19 06:34:39;;;;;;;;;;;11.10;99.90;;;;;;5048462;28;19948;-84
2021/11/19 06:37:07;;;;;;;;;;;10.80;99.90;;;;;;5048367;28;19975;-84
2021/11/19 06:39:38;;;;;;;;;;;11.10;99.90;;;;;;5048283;28;19936;-83
2021/11/19 06:42:05;;;;;;;;;;;11.10;99.90;;;;;;5047545;28;19994;-84
2021/11/19 06:44:31;;;;;;;;;;;11.00;99.90;;;;;;5050065;28;19932;-83
2021/11/19 06:46:58;;;;;;;;;;;11.00;99.90;;;;;;5050693;28;19925;-83
2021/11/19 06:49:24;;;;;;;;;;;11.00;99.90;;;;;;5049766;28;19926;-81
2021/11/19 06:51:51;;;;;;;;;;;11.00;99.90;;;;;;5051128;28;19925;-83
2021/11/19 06:54:19;;;;;;;;;;;11.00;99.90;;;;;;5051977;28;19925;-84
2021/11/19 06:56:45;;;;;;;;;;;11.10;99.90;;;;;;5050374;28;19952;-83
2021/11/19 06:59:11;;;;;;;;;;;11.10;99.90;;;;;;5049449;28;20441;-83
2021/11/19 07:01:38;;;;;;;;;;;10.90;99.90;;;;;;5048129;28;19925;-82
2021/11/19 07:04:05;;;;;;;;;;;11.10;99.90;;;;;;5044288;28;19932;-83
2021/11/19 07:06:32;;;;;;;;;;;11.10;99.90;;;;;;5041821;28;19925;-84
2021/11/19 07:08:59;;;;;;;;;;;11.10;99.90;;;;;;5037161;28;19925;-83
2021/11/19 07:11:27;;;;;;;;;;;11.10;99.90;;;;;;5040490;28;19932;-84
2021/11/19 07:13:54;;;;;;;;;;;11.10;99.90;;;;;;5051869;28;19936;-83
2021/11/19 07:16:21;;;;;;;;;;;11.10;99.90;;;;;;5054698;28;19925;-83
2021/11/19 07:18:48;;;;;;;;;;;11.20;99.90;;;;;;5054442;28;19925;-84
2021/11/19 07:21:14;;;;;;;;;;;11.20;99.90;;;;;;5054036;28;19929;-84
2021/11/19 07:23:41;;;;;;;;;;;11.20;99.90;;;;;;5050231;28;19932;-82
2021/11/19 07:26:08;;;;;;;;;;;11.20;99.90;;;;;;5047240;28;19932;-84
2021/11/19 07:28:35;;;;;;;;;;;11.20;99.90;;;;;;5044851;28;19929;-84
2021/11/19 07:31:03;;;;;;;;;;;11.20;99.90;;;;;;5046529;28;19925;-83
2021/11/19 07:33:30;;;;;;;;;;;11.20;99.90;;;;;;5049852;28;19931;-82
2021/11/19 07:35:58;;;;;;;;;;;11.30;99.90;;;;;;5048410;28;19925;-82
2021/11/19 07:38:25;;;;;;;;;;;11.30;99.90;;;;;;5049677;28;19952;-82
2021/11/19 07:40:52;;;;;;;;;;;11.40;99.90;;;;;;5049843;28;19925;-83
2021/11/19 07:43:20;;;;;;;;;;;11.30;99.90;;;;;;5050478;28;19925;-82
2021/11/19 07:45:49;;;;;;;;;;;11.30;99.90;;;;;;5049561;28;20426;-83
2021/11/19 07:48:16;;;;;;;;;;;11.30;99.90;;;;;;5047963;28;20338;-83
2021/11/19 07:50:45;;;;;;;;;;;11.40;99.90;;;;;;5047027;28;19952;-84
2021/11/19 07:53:13;;;;;;;;;;;11.40;99.90;;;;;;5051609;28;19925;-83
2021/11/19 07:55:41;;;;;;;;;;;11.40;99.90;;;;;;5053159;28;19929;-84
2021/11/19 07:58:07;;;;;;;;;;;11.40;99.90;;;;;;5048712;28;19967;-83
2021/11/19 08:00:36;;;;;;;;;;;11.30;99.90;;;;;;5046074;28;19929;-83
2021/11/19 08:03:04;;;;;;;;;;;11.40;99.90;;;;;;5045250;28;19925;-83
2021/11/19 08:05:31;;;;;;;;;;;11.40;99.90;;;;;;5044078;28;19925;-84
2021/11/19 08:07:57;;;;;;;;;;;11.50;99.90;;;;;;5043590;28;19925;-84
2021/11/19 08:10:24;;;;;;;;;;;11.50;99.90;;;;;;5043796;28;20245;-84
2021/11/19 08:12:50;;;;;;;;;;;11.50;99.90;;;;;;5042668;28;20004;-84
2021/11/19 08:15:18;;;;;;;;;;;11.50;99.90;;;;;;5043268;28;19972;-83
2021/11/19 08:17:49;;;;;;;;;;;11.40;99.90;;;;;;5043729;28;20059;-82
2021/11/19 08:20:18;;;;;;;;;;;11.50;99.90;;;;;;5042349;28;19929;-83
2021/11/19 08:22:45;;;;;;;;;;;11.50;99.90;;;;;;5043419;28;19949;-83
2021/11/19 08:25:12;;;;;;;;;;;11.50;99.90;;;;;;5042446;28;19925;-83
2021/11/19 08:27:40;;;;;;;;;;;11.50;99.90;;;;;;5043304;28;19925;-83
2021/11/19 08:30:09;;;;;;;;;;;11.50;99.90;;;;;;5041720;28;19925;-83
2021/11/19 08:32:35;;;;;;;;;;;11.50;99.90;;;;;;5041253;28;19933;-83
2021/11/19 08:35:02;;;;;;;;;;;11.50;99.90;;;;;;5042633;28;20252;-82
2021/11/19 08:37:31;;;;;;;;;;;11.50;99.90;;;;;;5042227;28;19937;-83
2021/11/19 08:39:58;;;;;;;;;;;11.60;99.90;;;;;;5043138;28;19925;-82
2021/11/19 08:42:25;;;;;;;;;;;11.50;99.90;;;;;;5044443;28;19937;-84
2021/11/19 08:44:51;;;;;;;;;;;11.50;99.90;;;;;;5042923;28;19936;-83
2021/11/19 08:47:20;;;;;;;;;;;11.60;99.90;;;;;;5043376;28;19925;-84
2021/11/19 08:49:47;;;;;;;;;;;11.60;99.90;;;;;;5042631;28;19936;-83
2021/11/19 08:52:15;;;;;;;;;;;11.60;99.90;;;;;;5043896;28;20007;-84
2021/11/19 08:54:43;;;;;;;;;;;11.60;99.90;;;;;;5043818;28;19925;-82
2021/11/19 08:57:11;;;;;;;;;;;11.60;99.90;;;;;;5043272;28;20377;-83
2021/11/19 08:59:39;;;;;;;;;;;11.60;99.90;;;;;;5043425;28;19925;-83
2021/11/19 09:02:06;;;;;;;;;;;11.70;99.90;;;;;;5052751;28;19948;-83
2021/11/19 09:04:34;;;;;;;;;;;11.70;99.90;;;;;;5059445;28;19939;-83
2021/11/19 09:07:00;;;;;;;;;;;11.70;99.90;;;;;;5052475;28;19955;-82
2021/11/19 09:09:28;;;;;;;;;;;11.70;99.90;;;;;;5048620;28;19925;-82
2021/11/19 09:11:55;;;;;;;;;;;11.70;99.90;;;;;;5060073;28;19925;-82
2021/11/19 09:14:22;;;;;;;;;;;11.70;99.90;;;;;;5056939;28;19925;-82
2021/11/19 09:16:55;;;;;;;;;;;11.70;99.90;;;;;;5049695;28;19909;-83
2021/11/19 09:19:23;;;;;;;;;;;11.70;99.90;;;;;;5057043;28;19925;-82
2021/11/19 09:21:54;;;;;;;;;;;11.70;99.90;;;;;;5057569;28;19923;-82
2021/11/19 09:24:22;;;;;;;;;;;11.80;99.90;;;;;;5054817;28;19975;-82
2021/11/19 09:26:53;;;;;;;;;;;11.60;99.90;;;;;;5054661;28;19925;-82
2021/11/19 09:29:24;;;;;;;;;;;11.60;99.90;;;;;;5052529;28;19925;-84
2021/11/19 09:31:51;;;;;;;;;;;11.60;99.90;;;;;;5050996;28;20024;-85
2021/11/19 09:34:18;;;;;;;;;;;11.50;99.90;;;;;;5044159;28;19925;-84
2021/11/19 09:36:45;;;;;;;;;;;11.60;99.90;;;;;;5043122;28;20470;-83
2021/11/19 09:39:16;;;;;;;;;;;11.50;99.90;;;;;;5048142;28;19925;-82
2021/11/19 09:41:45;;;;;;;;;;;11.40;99.90;;;;;;5052550;28;19925;-82
2021/11/19 09:44:23;;;;;;;;;;;11.50;99.90;;;;;;5054707;28;19931;-83
2021/11/19 09:47:07;;;;;;;;;;;11.50;99.90;;;;;;5052652;28;19936;-84
2021/11/19 09:49:47;;;;;;;;;;;11.50;99.90;;;;;;5043422;28;19993;-83
2021/11/19 09:52:42;;;;;;;;;;;11.50;99.90;;;;;;5042258;28;20299;-84
2021/11/19 09:55:22;;;;;;;;;;;11.50;99.90;;;;;;5041743;28;19932;-83
2021/11/19 09:57:59;;;;;;;;;;;11.50;99.90;;;;;;5041772;28;19925;-83
2021/11/19 10:00:32;;;;;;;;;;;11.60;99.90;;;;;;5044570;28;20016;-83
2021/11/19 10:03:09;;;;;;;;;;;11.60;99.90;;;;;;5043836;28;19964;-84
2021/11/19 10:05:39;;;;;;;;;;;11.60;99.90;;;;;;5042365;28;19929;-84
2021/11/19 10:08:30;;;;;;;;;;;11.70;99.90;;;;;;5040982;28;19929;-84
2021/11/19 10:11:00;;;;;;;;;;;11.70;99.90;;;;;;5030650;28;19932;-83
2021/11/19 10:13:49;;;;;;;;;;;11.70;99.90;;;;;;5040982;28;19925;-84
2021/11/19 10:16:30;;;;;;;;;;;11.70;99.90;;;;;;5041346;28;19971;-83
2021/11/19 10:18:59;;;;;;;;;;;11.70;99.90;;;;;;5060691;23;19925;-82
2021/11/19 10:21:27;;;;;;;;;;;11.70;99.90;;;;;;5069938;28;19925;-84
2021/11/19 10:23:54;;;;;;;;;;;11.70;99.90;;;;;;5067560;28;19970;-84
2021/11/19 10:26:22;;;;;;;;;;;11.40;99.90;;;;;;5066716;28;19925;-83
2021/11/19 10:28:51;;;;;;;;;;;11.70;99.90;;;;;;5066169;28;19925;-83
2021/11/19 10:31:20;;;;;;;;;;;11.70;99.90;;;;;;5064735;28;19924;-84
2021/11/19 10:33:51;;;;;;;;;;;11.70;99.90;;;;;;5064808;28;20346;-84
2021/11/19 10:36:27;;;;;;;;;;;11.50;99.90;;;;;;5064766;28;19975;-83
2021/11/19 10:39:19;;;;;;;;;;;11.80;99.90;;;;;;5063918;28;21365;-83
2021/11/19 10:42:13;;;;;;;;;;;11.80;99.90;;;;;;5064313;28;19947;-84
2021/11/19 10:44:54;;;;;;;;;;;11.70;99.90;;;;;;5065495;28;19988;-84
2021/11/19 10:47:33;;;;;;;;;;;11.70;99.90;;;;;;5065943;28;19932;-82
2021/11/19 10:50:21;;;;;;;;;;;11.70;99.90;;;;;;5076019;28;19935;-83
2021/11/19 10:53:08;;;;;;;;;;;11.70;99.90;;;;;;5053119;28;19909;-83
2021/11/19 10:55:56;;;;;;;;;;;11.70;99.90;;;;;;5078036;28;19916;-84
2021/11/19 10:58:23;;;;;;;;;;;;;;;;;;5077908;28;19979;-83
2021/11/19 11:00:56;;;;;;;;;;;11.80;99.90;;;;;;5078385;28;19929;-83
2021/11/19 11:03:24;;;;;;;;;;;11.80;99.90;;;;;;5077982;28;19912;-84
2021/11/19 11:05:56;;;;;;;;;;;11.80;99.90;;;;;;5077595;28;19931;-84
2021/11/19 11:08:24;;;;;;;;;;;11.80;99.90;;;;;;5072930;28;19929;-84
2021/11/19 11:10:53;;;;;;;;;;;11.80;99.90;;;;;;5073833;28;19944;-84
2021/11/19 11:13:23;;;;;;;;;;;11.80;99.90;;;;;;5075877;28;19913;-84
2021/11/19 11:15:51;;;;;;;;;;;11.90;99.90;;;;;;5077795;28;19920;-83
2021/11/19 11:18:21;;;;;;;;;;;11.90;99.90;;;;;;5078041;28;19935;-83
2021/11/19 11:20:59;;;;;;;;;;;11.90;99.90;;;;;;5079645;28;19917;-83
2021/11/19 11:23:27;;;;;;;;;;;11.90;99.90;;;;;;5082599;28;19959;-84
2021/11/19 11:25:59;;;;;;;;;;;11.90;99.90;;;;;;5082325;28;19912;-83
2021/11/19 11:28:37;;;;;;;;;;;12.00;99.90;;;;;;5082156;28;19965;-83
2021/11/19 11:31:15;;;;;;;;;;;12.00;99.90;;;;;;5082424;28;19944;-83
2021/11/19 11:33:51;;;;;;;;;;;12.00;99.90;;;;;;5082042;28;19913;-83
2021/11/19 11:36:21;;;;;;;;;;;12.00;99.90;;;;;;5081884;28;19951;-84
2021/11/19 11:38:53;;;;;;;;;;;12.00;99.90;;;;;;5082091;28;19913;-83
2021/11/19 11:41:24;;;;;;;;;;;12.00;99.90;;;;;;5081683;28;19931;-84
2021/11/19 11:44:05;;;;;;;;;;;12.10;99.90;;;;;;5081269;28;19924;-84
2021/11/19 11:46:32;;;;;;;;;;;12.10;99.90;;;;;;5076001;28;19951;-83
2021/11/19 11:49:04;;;;;;;;;;;12.10;99.90;;;;;;5075455;28;19999;-83
2021/11/19 11:51:38;;;;;;;;;;;12.10;99.90;;;;;;5080307;28;19951;-83
2021/11/19 11:54:06;;;;;;;;;;;12.10;99.90;;;;;;5069434;28;19924;-84
2021/11/19 11:56:39;;;;;;;;;;;12.10;99.90;;;;;;5072842;28;19925;-83
2021/11/19 11:59:09;;;;;;;;;;;12.10;99.90;;;;;;5070803;28;19990;-83
2021/11/19 12:01:41;;;;;;;;;;;12.10;99.90;;;;;;5074499;28;19951;-84
2021/11/19 12:04:10;;;;;;;;;;;12.10;99.90;;;;;;5076527;28;19925;-83
2021/11/19 12:06:39;;;;;;;;;;;11.60;99.90;;;;;;5071793;28;20295;-83
2021/11/19 12:09:11;;;;;;;;;;;12.10;99.90;;;;;;5070160;28;19951;-83
2021/11/19 12:12:01;;;;;;;;;;;12.20;99.90;;;;;;5068083;28;19924;-84
2021/11/19 12:14:34;;;;;;;;;;;12.20;99.90;;;;;;5066419;28;20342;-84
2021/11/19 12:17:08;;;;;;;;;;;12.20;99.90;;;;;;5066338;28;19924;-83
2021/11/19 12:19:36;;;;;;;;;;;12.30;99.90;;;;;;5065838;28;19947;-83
2021/11/19 12:22:06;;;;;;;;;;;12.30;99.90;;;;;;5067040;28;19931;-83
2021/11/19 12:24:35;;;;;;;;;;;12.30;99.90;;;;;;5072925;28;19913;-83
2021/11/19 12:27:11;;;;;;;;;;;12.30;99.90;;;;;;5078918;28;20332;-83
2021/11/19 12:29:42;;;;;;;;;;;12.30;99.90;;;;;;5071349;28;19964;-83
2021/11/19 12:32:13;;;;;;;;;;;12.40;99.90;;;;;;5066779;28;19925;-82
2021/11/19 12:34:42;;;;;;;;;;;12.30;99.90;;;;;;5066561;28;19925;-83
2021/11/19 12:37:10;;;;;;;;;;;12.40;99.90;;;;;;5068856;28;19924;-84
2021/11/19 12:39:38;;;;;;;;;;;12.40;99.90;;;;;;5068434;28;20447;-84
2021/11/19 12:42:11;;;;;;;;;;;12.30;99.90;;;;;;5070508;28;19925;-83
2021/11/19 12:44:44;;;;;;;;;;;12.30;99.90;;;;;;5071171;28;19925;-85
2021/11/19 12:47:26;;;;;;;;;;;12.30;99.90;;;;;;5077833;28;19913;-83
2021/11/19 12:50:14;;;;;;;;;;;12.30;99.90;;;;;;5077885;28;19973;-83
2021/11/19 12:52:41;;;;;;;;;;;12.30;99.90;;;;;;5070321;28;19968;-83
2021/11/19 12:55:29;;;;;;;;;;;12.40;99.90;;;;;;5071883;28;19931;-84
2021/11/19 12:58:09;;;;;;;;;;;12.30;99.90;;;;;;5072064;28;19952;-84
2021/11/19 13:00:48;;;;;;;;;;;12.30;99.90;;;;;;5073340;28;19925;-85
2021/11/19 13:03:16;;;;;;;;;;;12.30;99.90;;;;;;5078903;28;19924;-84
2021/11/19 13:05:51;;;;;;;;;;;11.70;99.90;;;;;;5076356;28;19959;-84
2021/11/19 13:08:33;;;;;;;;;;;12.30;99.90;;;;;;5076747;28;19929;-83
2021/11/19 13:11:14;;;;;;;;;;;12.30;99.90;;;;;;5075893;28;19975;-84
2021/11/19 13:13:42;;;;;;;;;;;12.40;99.90;;;;;;5075764;28;19925;-84
2021/11/19 13:16:30;;;;;;;;;;;12.40;99.90;;;;;;5074665;28;20016;-84
2021/11/19 13:18:57;;;;;;;;;;;;;;;;;;5075433;28;19925;-84
2021/11/19 13:21:42;;;;;;;;;;;12.30;99.90;;;;;;5074612;28;19951;-84
2021/11/19 13:24:27;;;;;;;;;;;12.30;99.90;;;;;;5074776;28;20016;-85
2021/11/19 13:26:54;;;;;;;;;;;12.30;99.90;;;;;;5076983;28;19960;-84
2021/11/19 13:29:45;;;;;;;;;;;12.40;99.90;;;;;;5077196;28;20013;-84
2021/11/19 13:32:32;;;;;;;;;;;12.40;99.90;;;;;;5076805;28;19925;-83
2021/11/19 13:35:01;;;;;;;;;;;12.40;99.90;;;;;;5061392;28;20320;-84
2021/11/19 13:37:30;;;;;;;;;;;12.40;99.90;;;;;;5070420;28;19929;-85
2021/11/19 13:40:17;;;;;;;;;;;12.50;99.90;;;;;;5069290;28;20050;-83
2021/11/19 13:42:45;;;;;;;;;;;12.40;99.90;;;;;;5072467;28;19916;-84
2021/11/19 13:45:33;;;;;;;;;;;12.50;99.90;;;;;;5078939;28;19921;-83
2021/11/19 13:48:14;;;;;;;;;;;12.50;99.90;;;;;;5054240;28;19919;-83
2021/11/19 13:50:58;;;;;;;;;;;12.50;99.90;;;;;;5079212;28;19909;-83
2021/11/19 13:53:26;;;;;;;;;;;12.50;99.90;;;;;;5079236;28;19935;-83
2021/11/19 13:56:07;;;;;;;;;;;12.50;99.90;;;;;;5079060;28;19913;-84
2021/11/19 13:58:35;;;;;;;;;;;12.50;99.90;;;;;;5070682;28;19935;-84
2021/11/19 14:01:09;;;;;;;;;;;12.50;99.90;;;;;;5066641;28;19948;-84
2021/11/19 14:03:39;;;;;;;;;;;12.50;99.90;;;;;;5067379;28;19932;-84
2021/11/19 14:06:09;;;;;;;;;;;12.60;99.90;;;;;;5067001;28;19947;-84
2021/11/19 14:08:36;;;;;;;;;;;12.60;99.90;;;;;;5067171;28;20028;-85
2021/11/19 14:11:04;;;;;;;;;;;12.60;99.90;;;;;;5067340;28;19936;-85
2021/11/19 14:13:33;;;;;;;;;;;12.50;99.90;;;;;;5068247;28;19924;-85
2021/11/19 14:16:02;;;;;;;;;;;12.60;99.90;;;;;;5070552;28;19932;-84
2021/11/19 14:18:32;;;;;;;;;;;12.60;99.90;;;;;;5067603;28;20283;-85
2021/11/19 14:23:51;;;;;;;;;;;12.60;99.90;;;;;;5067679;28;19948;-84
2021/11/19 14:26:22;;;;;;;;;;;12.60;99.90;;;;;;5066802;28;20284;-84
2021/11/19 14:28:51;;;;;;;;;;;12.60;99.90;;;;;;5069068;28;19925;-83
2021/11/19 14:31:19;;;;;;;;;;;12.60;99.90;;;;;;5068929;28;19925;-84
2021/11/19 14:33:54;;;;;;;;;;;12.70;99.90;;;;;;5067949;28;19991;-84
2021/11/19 14:36:22;;;;;;;;;;;12.70;99.90;;;;;;5078337;28;19916;-84